sensor_id;sensor_type;location;lat;lon;timestamp;P1;durP1;ratioP1;P2;durP2;ratioP2
3559;SDS011;1794;48.804;9.156;2022-07-29T00:02:23;7.63;;;6.60;;
3559;SDS011;1794;48.804;9.156;2022-07-29T00:04:50;7.33;;;6.60;;
3559;SDS011;1794;48.804;9.156;2022-07-29T00:07:17;6.90;;;6.30;;
3559;SDS011;1794;48.804;9.156;2022-07-29T00:09:43;7.13;;;6.43;;
3559;SDS011;1794;48.804;9.156;2022-07-29T00:12:10;7.47;;;6.77;;
3559;SDS011;1794;48.804;9.156;2022-07-29T00:14:38;7.03;;;6.30;;
3559;SDS011;1794;48.804;9.156;2022-07-29T00:17:05;6.37;;;5.70;;
3559;SDS011;1794;48.804;9.156;2022-07-29T00:19:32;10.83;;;6.73;;
3559;SDS011;1794;48.804;9.156;2022-07-29T00:21:59;6.70;;;6.10;;
3559;SDS011;1794;48.804;9.156;2022-07-29T00:24:26;7.27;;;6.60;;
3559;SDS011;1794;48.804;9.156;2022-07-29T00:26:53;9.50;;;6.73;;
3559;SDS011;1794;48.804;9.156;2022-07-29T00:29:19;6.83;;;6.23;;
3559;SDS011;1794;48.804;9.156;2022-07-29T00:31:48;7.40;;;6.50;;
3559;SDS011;1794;48.804;9.156;2022-07-29T00:34:14;7.87;;;7.07;;
3559;SDS011;1794;48.804;9.156;2022-07-29T00:36:55;6.70;;;6.10;;
3559;SDS011;1794;48.804;9.156;2022-07-29T00:39:22;7.57;;;6.70;;
3559;SDS011;1794;48.804;9.156;2022-07-29T00:41:49;7.90;;;7.10;;
3559;SDS011;1794;48.804;9.156;2022-07-29T00:44:16;7.60;;;6.90;;
3559;SDS011;1794;48.804;9.156;2022-07-29T00:46:42;10.40;;;8.30;;
3559;SDS011;1794;48.804;9.156;2022-07-29T00:49:10;7.97;;;7.17;;
3559;SDS011;1794;48.804;9.156;2022-07-29T00:51:37;7.50;;;6.80;;
3559;SDS011;1794;48.804;9.156;2022-07-29T00:54:05;7.23;;;6.53;;
3559;SDS011;1794;48.804;9.156;2022-07-29T00:56:32;7.03;;;6.43;;
3559;SDS011;1794;48.804;9.156;2022-07-29T00:58:59;6.83;;;6.13;;
3559;SDS011;1794;48.804;9.156;2022-07-29T01:01:27;6.70;;;6.00;;
3559;SDS011;1794;48.804;9.156;2022-07-29T01:03:54;6.07;;;5.40;;
3559;SDS011;1794;48.804;9.156;2022-07-29T01:06:22;7.10;;;5.70;;
3559;SDS011;1794;48.804;9.156;2022-07-29T01:08:50;6.60;;;6.00;;
3559;SDS011;1794;48.804;9.156;2022-07-29T01:11:18;6.57;;;5.97;;
3559;SDS011;1794;48.804;9.156;2022-07-29T01:13:45;5.60;;;5.10;;
3559;SDS011;1794;48.804;9.156;2022-07-29T01:16:15;8.37;;;6.77;;
3559;SDS011;1794;48.804;9.156;2022-07-29T01:18:47;6.63;;;6.03;;
3559;SDS011;1794;48.804;9.156;2022-07-29T01:21:27;8.70;;;6.57;;
3559;SDS011;1794;48.804;9.156;2022-07-29T01:24:20;7.10;;;6.03;;
3559;SDS011;1794;48.804;9.156;2022-07-29T01:27:12;5.90;;;5.40;;
3559;SDS011;1794;48.804;9.156;2022-07-29T01:29:54;6.37;;;5.77;;
3559;SDS011;1794;48.804;9.156;2022-07-29T01:32:25;6.37;;;5.67;;
3559;SDS011;1794;48.804;9.156;2022-07-29T01:34:54;8.17;;;5.53;;
3559;SDS011;1794;48.804;9.156;2022-07-29T01:37:26;6.00;;;5.33;;
3559;SDS011;1794;48.804;9.156;2022-07-29T01:39:56;6.10;;;5.37;;
3559;SDS011;1794;48.804;9.156;2022-07-29T01:42:26;6.67;;;6.07;;
3559;SDS011;1794;48.804;9.156;2022-07-29T01:44:59;5.83;;;5.33;;
3559;SDS011;1794;48.804;9.156;2022-07-29T01:47:31;6.77;;;6.07;;
3559;SDS011;1794;48.804;9.156;2022-07-29T01:50:03;5.00;;;4.60;;
3559;SDS011;1794;48.804;9.156;2022-07-29T01:52:36;6.17;;;5.57;;
3559;SDS011;1794;48.804;9.156;2022-07-29T01:55:09;5.40;;;4.87;;
3559;SDS011;1794;48.804;9.156;2022-07-29T01:57:42;5.90;;;4.93;;
3559;SDS011;1794;48.804;9.156;2022-07-29T02:00:15;6.00;;;5.50;;
3559;SDS011;1794;48.804;9.156;2022-07-29T02:02:44;6.57;;;5.00;;
3559;SDS011;1794;48.804;9.156;2022-07-29T02:05:14;5.10;;;4.70;;
3559;SDS011;1794;48.804;9.156;2022-07-29T02:07:42;5.50;;;5.00;;
3559;SDS011;1794;48.804;9.156;2022-07-29T02:10:10;5.67;;;5.17;;
3559;SDS011;1794;48.804;9.156;2022-07-29T02:12:39;6.00;;;4.77;;
3559;SDS011;1794;48.804;9.156;2022-07-29T02:15:08;5.50;;;4.90;;
3559;SDS011;1794;48.804;9.156;2022-07-29T02:17:39;5.10;;;4.70;;
3559;SDS011;1794;48.804;9.156;2022-07-29T02:20:09;6.13;;;5.57;;
3559;SDS011;1794;48.804;9.156;2022-07-29T02:22:37;5.57;;;5.07;;
3559;SDS011;1794;48.804;9.156;2022-07-29T02:25:05;5.80;;;5.30;;
3559;SDS011;1794;48.804;9.156;2022-07-29T02:27:34;4.80;;;4.40;;
3559;SDS011;1794;48.804;9.156;2022-07-29T02:30:03;6.17;;;4.93;;
3559;SDS011;1794;48.804;9.156;2022-07-29T02:32:31;5.37;;;4.87;;
3559;SDS011;1794;48.804;9.156;2022-07-29T02:35:04;6.30;;;5.80;;
3559;SDS011;1794;48.804;9.156;2022-07-29T02:37:32;5.10;;;4.60;;
3559;SDS011;1794;48.804;9.156;2022-07-29T02:39:59;5.57;;;4.93;;
3559;SDS011;1794;48.804;9.156;2022-07-29T02:42:27;5.47;;;4.90;;
3559;SDS011;1794;48.804;9.156;2022-07-29T02:44:55;6.17;;;5.57;;
3559;SDS011;1794;48.804;9.156;2022-07-29T02:47:23;5.20;;;4.70;;
3559;SDS011;1794;48.804;9.156;2022-07-29T02:49:57;5.40;;;4.90;;
3559;SDS011;1794;48.804;9.156;2022-07-29T02:52:34;6.90;;;5.37;;
3559;SDS011;1794;48.804;9.156;2022-07-29T02:55:06;5.00;;;4.60;;
3559;SDS011;1794;48.804;9.156;2022-07-29T02:57:41;5.30;;;4.80;;
3559;SDS011;1794;48.804;9.156;2022-07-29T03:00:10;6.33;;;5.03;;
3559;SDS011;1794;48.804;9.156;2022-07-29T03:02:40;6.00;;;5.50;;
3559;SDS011;1794;48.804;9.156;2022-07-29T03:05:10;6.57;;;5.27;;
3559;SDS011;1794;48.804;9.156;2022-07-29T03:07:43;5.57;;;5.07;;
3559;SDS011;1794;48.804;9.156;2022-07-29T03:10:12;5.43;;;4.93;;
3559;SDS011;1794;48.804;9.156;2022-07-29T03:12:39;5.67;;;5.07;;
3559;SDS011;1794;48.804;9.156;2022-07-29T03:15:07;7.17;;;5.30;;
3559;SDS011;1794;48.804;9.156;2022-07-29T03:17:35;6.70;;;6.10;;
3559;SDS011;1794;48.804;9.156;2022-07-29T03:20:04;6.30;;;5.40;;
3559;SDS011;1794;48.804;9.156;2022-07-29T03:22:37;6.53;;;5.93;;
3559;SDS011;1794;48.804;9.156;2022-07-29T03:25:10;6.30;;;5.70;;
3559;SDS011;1794;48.804;9.156;2022-07-29T03:27:37;8.13;;;6.10;;
3559;SDS011;1794;48.804;9.156;2022-07-29T03:30:04;6.00;;;5.40;;
3559;SDS011;1794;48.804;9.156;2022-07-29T03:32:32;5.03;;;4.53;;
3559;SDS011;1794;48.804;9.156;2022-07-29T03:34:59;6.27;;;5.67;;
3559;SDS011;1794;48.804;9.156;2022-07-29T03:37:26;8.07;;;5.33;;
3559;SDS011;1794;48.804;9.156;2022-07-29T03:39:54;6.60;;;5.90;;
3559;SDS011;1794;48.804;9.156;2022-07-29T03:42:23;7.53;;;6.40;;
3559;SDS011;1794;48.804;9.156;2022-07-29T03:44:52;5.73;;;5.23;;
3559;SDS011;1794;48.804;9.156;2022-07-29T03:47:22;6.10;;;4.80;;
3559;SDS011;1794;48.804;9.156;2022-07-29T03:49:52;6.60;;;5.73;;
3559;SDS011;1794;48.804;9.156;2022-07-29T03:52:25;6.23;;;5.63;;
3559;SDS011;1794;48.804;9.156;2022-07-29T03:54:52;6.23;;;5.30;;
3559;SDS011;1794;48.804;9.156;2022-07-29T03:57:19;5.70;;;5.20;;
3559;SDS011;1794;48.804;9.156;2022-07-29T03:59:51;6.40;;;5.80;;
3559;SDS011;1794;48.804;9.156;2022-07-29T04:02:18;6.33;;;5.20;;
3559;SDS011;1794;48.804;9.156;2022-07-29T04:04:46;5.63;;;5.13;;
3559;SDS011;1794;48.804;9.156;2022-07-29T04:07:13;6.70;;;5.60;;
3559;SDS011;1794;48.804;9.156;2022-07-29T04:09:40;6.00;;;5.40;;
3559;SDS011;1794;48.804;9.156;2022-07-29T04:12:08;6.60;;;6.00;;
3559;SDS011;1794;48.804;9.156;2022-07-29T04:14:35;6.30;;;5.70;;
3559;SDS011;1794;48.804;9.156;2022-07-29T04:17:04;6.33;;;5.73;;
3559;SDS011;1794;48.804;9.156;2022-07-29T04:19:31;6.30;;;5.70;;
3559;SDS011;1794;48.804;9.156;2022-07-29T04:21:59;7.53;;;5.20;;
3559;SDS011;1794;48.804;9.156;2022-07-29T04:24:27;6.33;;;5.73;;
3559;SDS011;1794;48.804;9.156;2022-07-29T04:26:54;6.13;;;5.60;;
3559;SDS011;1794;48.804;9.156;2022-07-29T04:29:20;6.10;;;5.50;;
3559;SDS011;1794;48.804;9.156;2022-07-29T04:31:47;6.03;;;5.53;;
3559;SDS011;1794;48.804;9.156;2022-07-29T04:34:15;6.73;;;6.10;;
3559;SDS011;1794;48.804;9.156;2022-07-29T04:36:42;6.17;;;5.30;;
3559;SDS011;1794;48.804;9.156;2022-07-29T04:39:09;5.60;;;5.10;;
3559;SDS011;1794;48.804;9.156;2022-07-29T04:41:36;5.37;;;4.87;;
3559;SDS011;1794;48.804;9.156;2022-07-29T04:44:03;5.97;;;5.37;;
3559;SDS011;1794;48.804;9.156;2022-07-29T04:46:30;6.00;;;5.40;;
3559;SDS011;1794;48.804;9.156;2022-07-29T04:48:57;6.90;;;5.20;;
3559;SDS011;1794;48.804;9.156;2022-07-29T04:51:25;5.73;;;5.23;;
3559;SDS011;1794;48.804;9.156;2022-07-29T04:53:52;6.77;;;5.33;;
3559;SDS011;1794;48.804;9.156;2022-07-29T04:56:19;5.97;;;4.93;;
3559;SDS011;1794;48.804;9.156;2022-07-29T04:58:45;6.70;;;4.97;;
3559;SDS011;1794;48.804;9.156;2022-07-29T05:01:12;7.00;;;5.33;;
3559;SDS011;1794;48.804;9.156;2022-07-29T05:03:39;5.90;;;5.30;;
3559;SDS011;1794;48.804;9.156;2022-07-29T05:06:06;5.27;;;4.50;;
3559;SDS011;1794;48.804;9.156;2022-07-29T05:08:34;5.00;;;4.50;;
3559;SDS011;1794;48.804;9.156;2022-07-29T05:11:01;5.53;;;5.03;;
3559;SDS011;1794;48.804;9.156;2022-07-29T05:13:28;5.33;;;4.83;;
3559;SDS011;1794;48.804;9.156;2022-07-29T05:15:55;5.70;;;5.20;;
3559;SDS011;1794;48.804;9.156;2022-07-29T05:18:23;6.20;;;4.73;;
3559;SDS011;1794;48.804;9.156;2022-07-29T05:20:50;6.30;;;5.20;;
3559;SDS011;1794;48.804;9.156;2022-07-29T05:23:17;4.97;;;4.53;;
3559;SDS011;1794;48.804;9.156;2022-07-29T05:25:45;4.97;;;4.50;;
3559;SDS011;1794;48.804;9.156;2022-07-29T05:28:12;5.47;;;4.70;;
3559;SDS011;1794;48.804;9.156;2022-07-29T05:30:39;4.13;;;3.73;;
3559;SDS011;1794;48.804;9.156;2022-07-29T05:33:05;5.40;;;4.40;;
3559;SDS011;1794;48.804;9.156;2022-07-29T05:35:32;4.10;;;3.70;;
3559;SDS011;1794;48.804;9.156;2022-07-29T05:37:59;6.47;;;4.27;;
3559;SDS011;1794;48.804;9.156;2022-07-29T05:40:26;5.73;;;4.20;;
3559;SDS011;1794;48.804;9.156;2022-07-29T05:42:54;3.70;;;3.40;;
3559;SDS011;1794;48.804;9.156;2022-07-29T05:45:22;3.93;;;3.20;;
3559;SDS011;1794;48.804;9.156;2022-07-29T05:47:49;3.67;;;3.37;;
3559;SDS011;1794;48.804;9.156;2022-07-29T05:50:16;3.83;;;3.47;;
3559;SDS011;1794;48.804;9.156;2022-07-29T05:52:42;3.97;;;3.57;;
3559;SDS011;1794;48.804;9.156;2022-07-29T05:55:09;3.53;;;2.50;;
3559;SDS011;1794;48.804;9.156;2022-07-29T05:57:36;3.67;;;3.13;;
3559;SDS011;1794;48.804;9.156;2022-07-29T06:00:05;3.40;;;3.10;;
3559;SDS011;1794;48.804;9.156;2022-07-29T06:02:32;3.13;;;2.77;;
3559;SDS011;1794;48.804;9.156;2022-07-29T06:04:59;4.77;;;2.90;;
3559;SDS011;1794;48.804;9.156;2022-07-29T06:07:26;4.50;;;3.10;;
3559;SDS011;1794;48.804;9.156;2022-07-29T06:09:52;3.50;;;3.20;;
3559;SDS011;1794;48.804;9.156;2022-07-29T06:12:19;4.60;;;3.30;;
3559;SDS011;1794;48.804;9.156;2022-07-29T06:14:46;4.67;;;3.00;;
3559;SDS011;1794;48.804;9.156;2022-07-29T06:17:14;5.30;;;3.70;;
3559;SDS011;1794;48.804;9.156;2022-07-29T06:19:42;3.30;;;3.00;;
3559;SDS011;1794;48.804;9.156;2022-07-29T06:22:08;3.70;;;3.40;;
3559;SDS011;1794;48.804;9.156;2022-07-29T06:24:35;3.23;;;2.90;;
3559;SDS011;1794;48.804;9.156;2022-07-29T06:27:06;3.20;;;2.90;;
3559;SDS011;1794;48.804;9.156;2022-07-29T06:29:34;5.40;;;3.27;;
3559;SDS011;1794;48.804;9.156;2022-07-29T06:32:01;8.47;;;3.80;;
3559;SDS011;1794;48.804;9.156;2022-07-29T06:34:29;3.53;;;3.23;;
3559;SDS011;1794;48.804;9.156;2022-07-29T06:36:56;4.40;;;3.37;;
3559;SDS011;1794;48.804;9.156;2022-07-29T06:39:22;5.10;;;4.07;;
3559;SDS011;1794;48.804;9.156;2022-07-29T06:41:49;5.70;;;3.77;;
3559;SDS011;1794;48.804;9.156;2022-07-29T06:44:16;5.23;;;4.00;;
3559;SDS011;1794;48.804;9.156;2022-07-29T06:46:43;3.73;;;3.33;;
3559;SDS011;1794;48.804;9.156;2022-07-29T06:49:12;6.50;;;3.87;;
3559;SDS011;1794;48.804;9.156;2022-07-29T06:51:40;4.20;;;3.70;;
3559;SDS011;1794;48.804;9.156;2022-07-29T06:54:07;4.30;;;3.90;;
3559;SDS011;1794;48.804;9.156;2022-07-29T06:56:34;4.00;;;3.33;;
3559;SDS011;1794;48.804;9.156;2022-07-29T06:59:02;4.80;;;3.77;;
3559;SDS011;1794;48.804;9.156;2022-07-29T07:01:29;5.50;;;3.60;;
3559;SDS011;1794;48.804;9.156;2022-07-29T07:03:55;4.50;;;4.00;;
3559;SDS011;1794;48.804;9.156;2022-07-29T07:06:22;4.83;;;3.97;;
3559;SDS011;1794;48.804;9.156;2022-07-29T07:08:50;6.23;;;3.97;;
3559;SDS011;1794;48.804;9.156;2022-07-29T07:11:17;7.13;;;4.60;;
3559;SDS011;1794;48.804;9.156;2022-07-29T07:13:44;4.27;;;3.83;;
3559;SDS011;1794;48.804;9.156;2022-07-29T07:16:10;4.57;;;4.20;;
3559;SDS011;1794;48.804;9.156;2022-07-29T07:18:37;5.10;;;4.70;;
3559;SDS011;1794;48.804;9.156;2022-07-29T07:21:04;5.27;;;4.57;;
3559;SDS011;1794;48.804;9.156;2022-07-29T07:23:30;5.10;;;4.60;;
3559;SDS011;1794;48.804;9.156;2022-07-29T07:25:59;4.90;;;4.50;;
3559;SDS011;1794;48.804;9.156;2022-07-29T07:28:25;6.90;;;5.07;;
3559;SDS011;1794;48.804;9.156;2022-07-29T07:30:52;6.10;;;4.90;;
3559;SDS011;1794;48.804;9.156;2022-07-29T07:33:19;7.00;;;4.70;;
3559;SDS011;1794;48.804;9.156;2022-07-29T07:35:45;5.80;;;4.70;;
3559;SDS011;1794;48.804;9.156;2022-07-29T07:38:12;5.50;;;5.00;;
3559;SDS011;1794;48.804;9.156;2022-07-29T07:40:39;4.80;;;4.40;;
3559;SDS011;1794;48.804;9.156;2022-07-29T07:43:07;5.10;;;4.60;;
3559;SDS011;1794;48.804;9.156;2022-07-29T07:45:34;5.47;;;4.83;;
3559;SDS011;1794;48.804;9.156;2022-07-29T07:48:02;4.80;;;4.30;;
3559;SDS011;1794;48.804;9.156;2022-07-29T07:50:29;5.17;;;4.50;;
3559;SDS011;1794;48.804;9.156;2022-07-29T07:52:55;5.10;;;4.60;;
3559;SDS011;1794;48.804;9.156;2022-07-29T07:55:23;5.50;;;5.00;;
3559;SDS011;1794;48.804;9.156;2022-07-29T07:57:51;4.97;;;4.47;;
3559;SDS011;1794;48.804;9.156;2022-07-29T08:00:19;4.93;;;4.50;;
3559;SDS011;1794;48.804;9.156;2022-07-29T08:02:46;4.87;;;4.40;;
3559;SDS011;1794;48.804;9.156;2022-07-29T08:05:13;5.80;;;4.90;;
3559;SDS011;1794;48.804;9.156;2022-07-29T08:07:42;4.40;;;4.00;;
3559;SDS011;1794;48.804;9.156;2022-07-29T08:10:10;5.37;;;4.87;;
3559;SDS011;1794;48.804;9.156;2022-07-29T08:12:36;6.13;;;4.67;;
3559;SDS011;1794;48.804;9.156;2022-07-29T08:15:03;7.10;;;5.10;;
3559;SDS011;1794;48.804;9.156;2022-07-29T08:17:33;5.27;;;4.87;;
3559;SDS011;1794;48.804;9.156;2022-07-29T08:20:00;9.77;;;5.60;;
3559;SDS011;1794;48.804;9.156;2022-07-29T08:22:27;5.27;;;4.77;;
3559;SDS011;1794;48.804;9.156;2022-07-29T08:24:54;5.50;;;5.00;;
3559;SDS011;1794;48.804;9.156;2022-07-29T08:27:21;5.30;;;4.80;;
3559;SDS011;1794;48.804;9.156;2022-07-29T08:29:48;5.30;;;4.80;;
3559;SDS011;1794;48.804;9.156;2022-07-29T08:32:15;5.67;;;5.13;;
3559;SDS011;1794;48.804;9.156;2022-07-29T08:34:43;4.60;;;4.20;;
3559;SDS011;1794;48.804;9.156;2022-07-29T08:37:11;5.43;;;4.93;;
3559;SDS011;1794;48.804;9.156;2022-07-29T08:39:38;4.77;;;4.23;;
3559;SDS011;1794;48.804;9.156;2022-07-29T08:42:05;4.87;;;4.37;;
3559;SDS011;1794;48.804;9.156;2022-07-29T08:44:32;6.60;;;6.00;;
3559;SDS011;1794;48.804;9.156;2022-07-29T08:46:59;6.87;;;4.90;;
3559;SDS011;1794;48.804;9.156;2022-07-29T08:49:26;6.37;;;5.30;;
3559;SDS011;1794;48.804;9.156;2022-07-29T08:51:54;5.73;;;4.97;;
3559;SDS011;1794;48.804;9.156;2022-07-29T08:54:23;5.43;;;4.93;;
3559;SDS011;1794;48.804;9.156;2022-07-29T08:56:50;5.30;;;4.80;;
3559;SDS011;1794;48.804;9.156;2022-07-29T08:59:18;5.77;;;4.90;;
3559;SDS011;1794;48.804;9.156;2022-07-29T09:01:46;6.10;;;5.37;;
3559;SDS011;1794;48.804;9.156;2022-07-29T09:04:15;18.20;;;6.13;;
3559;SDS011;1794;48.804;9.156;2022-07-29T09:06:43;8.97;;;5.37;;
3559;SDS011;1794;48.804;9.156;2022-07-29T09:09:14;7.13;;;4.83;;
3559;SDS011;1794;48.804;9.156;2022-07-29T09:11:41;7.53;;;5.27;;
3559;SDS011;1794;48.804;9.156;2022-07-29T09:14:10;7.07;;;4.60;;
3559;SDS011;1794;48.804;9.156;2022-07-29T09:16:48;7.20;;;5.00;;
3559;SDS011;1794;48.804;9.156;2022-07-29T09:19:24;5.60;;;4.93;;
3559;SDS011;1794;48.804;9.156;2022-07-29T09:21:53;6.82;;;5.18;;
3559;SDS011;1794;48.804;9.156;2022-07-29T09:24:26;5.57;;;5.13;;
3559;SDS011;1794;48.804;9.156;2022-07-29T09:27:03;6.15;;;5.53;;
3559;SDS011;1794;48.804;9.156;2022-07-29T09:29:43;7.00;;;5.35;;
3559;SDS011;1794;48.804;9.156;2022-07-29T09:32:10;5.80;;;4.97;;
3559;SDS011;1794;48.804;9.156;2022-07-29T09:34:37;5.53;;;5.03;;
3559;SDS011;1794;48.804;9.156;2022-07-29T09:37:04;6.03;;;5.53;;
3559;SDS011;1794;48.804;9.156;2022-07-29T09:39:33;7.30;;;5.35;;
3559;SDS011;1794;48.804;9.156;2022-07-29T09:42:03;5.70;;;5.20;;
3559;SDS011;1794;48.804;9.156;2022-07-29T09:44:40;5.67;;;4.93;;
3559;SDS011;1794;48.804;9.156;2022-07-29T09:47:10;5.50;;;5.10;;
3559;SDS011;1794;48.804;9.156;2022-07-29T09:49:50;8.23;;;4.77;;
3559;SDS011;1794;48.804;9.156;2022-07-29T09:52:18;6.00;;;5.50;;
3559;SDS011;1794;48.804;9.156;2022-07-29T09:54:47;7.50;;;5.37;;
3559;SDS011;1794;48.804;9.156;2022-07-29T09:57:22;5.60;;;5.10;;
3559;SDS011;1794;48.804;9.156;2022-07-29T09:59:57;6.50;;;5.90;;
3559;SDS011;1794;48.804;9.156;2022-07-29T10:02:28;6.50;;;6.00;;
3559;SDS011;1794;48.804;9.156;2022-07-29T10:04:56;7.83;;;5.87;;
3559;SDS011;1794;48.804;9.156;2022-07-29T10:07:23;6.30;;;5.53;;
3559;SDS011;1794;48.804;9.156;2022-07-29T10:09:53;6.07;;;5.47;;
3559;SDS011;1794;48.804;9.156;2022-07-29T10:12:21;6.90;;;5.80;;
3559;SDS011;1794;48.804;9.156;2022-07-29T10:14:50;7.97;;;5.90;;
3559;SDS011;1794;48.804;9.156;2022-07-29T10:17:17;6.50;;;5.67;;
3559;SDS011;1794;48.804;9.156;2022-07-29T10:19:44;6.63;;;6.07;;
3559;SDS011;1794;48.804;9.156;2022-07-29T10:22:11;7.50;;;5.97;;
3559;SDS011;1794;48.804;9.156;2022-07-29T10:24:38;6.73;;;6.20;;
3559;SDS011;1794;48.804;9.156;2022-07-29T10:27:07;6.97;;;6.30;;
3559;SDS011;1794;48.804;9.156;2022-07-29T10:29:35;6.80;;;6.03;;
3559;SDS011;1794;48.804;9.156;2022-07-29T10:32:07;8.00;;;7.20;;
3559;SDS011;1794;48.804;9.156;2022-07-29T10:34:57;8.73;;;6.73;;
3559;SDS011;1794;48.804;9.156;2022-07-29T10:37:37;8.73;;;7.93;;
3559;SDS011;1794;48.804;9.156;2022-07-29T10:40:17;7.80;;;7.10;;
3559;SDS011;1794;48.804;9.156;2022-07-29T10:43:16;7.40;;;6.67;;
3559;SDS011;1794;48.804;9.156;2022-07-29T10:45:45;7.30;;;6.50;;
3559;SDS011;1794;48.804;9.156;2022-07-29T10:48:14;7.90;;;7.17;;
3559;SDS011;1794;48.804;9.156;2022-07-29T10:50:53;8.87;;;7.00;;
3559;SDS011;1794;48.804;9.156;2022-07-29T10:53:21;9.10;;;7.13;;
3559;SDS011;1794;48.804;9.156;2022-07-29T10:55:48;6.67;;;6.00;;
3559;SDS011;1794;48.804;9.156;2022-07-29T10:58:18;9.77;;;7.50;;
3559;SDS011;1794;48.804;9.156;2022-07-29T11:00:46;7.77;;;6.60;;
3559;SDS011;1794;48.804;9.156;2022-07-29T11:05:52;11.17;;;6.60;;
3559;SDS011;1794;48.804;9.156;2022-07-29T11:08:21;7.67;;;6.73;;
3559;SDS011;1794;48.804;9.156;2022-07-29T11:10:50;8.00;;;7.20;;
3559;SDS011;1794;48.804;9.156;2022-07-29T11:16:13;7.67;;;6.97;;
3559;SDS011;1794;48.804;9.156;2022-07-29T11:21:44;8.50;;;7.70;;
3559;SDS011;1794;48.804;9.156;2022-07-29T11:24:14;9.53;;;8.60;;
3559;SDS011;1794;48.804;9.156;2022-07-29T11:26:43;11.53;;;10.37;;
3559;SDS011;1794;48.804;9.156;2022-07-29T11:29:18;10.67;;;8.70;;
3559;SDS011;1794;48.804;9.156;2022-07-29T11:31:47;9.93;;;8.90;;
3559;SDS011;1794;48.804;9.156;2022-07-29T11:34:23;9.97;;;8.97;;
3559;SDS011;1794;48.804;9.156;2022-07-29T11:39:43;9.90;;;8.20;;
3559;SDS011;1794;48.804;9.156;2022-07-29T11:45:12;9.93;;;9.00;;
3559;SDS011;1794;48.804;9.156;2022-07-29T11:47:41;10.17;;;9.20;;
3559;SDS011;1794;48.804;9.156;2022-07-29T11:50:14;9.60;;;8.70;;
3559;SDS011;1794;48.804;9.156;2022-07-29T11:52:43;9.63;;;8.80;;
3559;SDS011;1794;48.804;9.156;2022-07-29T11:55:12;12.43;;;9.67;;
3559;SDS011;1794;48.804;9.156;2022-07-29T11:57:46;9.00;;;8.10;;
3559;SDS011;1794;48.804;9.156;2022-07-29T12:00:22;9.50;;;8.33;;
3559;SDS011;1794;48.804;9.156;2022-07-29T12:02:50;8.60;;;7.90;;
3559;SDS011;1794;48.804;9.156;2022-07-29T12:05:17;8.10;;;7.40;;
3559;SDS011;1794;48.804;9.156;2022-07-29T12:07:45;9.60;;;8.60;;
3559;SDS011;1794;48.804;9.156;2022-07-29T12:10:13;10.00;;;8.00;;
3559;SDS011;1794;48.804;9.156;2022-07-29T12:12:40;11.97;;;8.87;;
3559;SDS011;1794;48.804;9.156;2022-07-29T12:15:11;10.57;;;8.47;;
3559;SDS011;1794;48.804;9.156;2022-07-29T12:17:41;10.17;;;8.20;;
3559;SDS011;1794;48.804;9.156;2022-07-29T12:20:09;8.63;;;7.37;;
3559;SDS011;1794;48.804;9.156;2022-07-29T12:22:36;7.63;;;6.90;;
3559;SDS011;1794;48.804;9.156;2022-07-29T12:25:06;7.27;;;6.60;;
3559;SDS011;1794;48.804;9.156;2022-07-29T12:27:34;7.27;;;6.60;;
3559;SDS011;1794;48.804;9.156;2022-07-29T12:30:03;9.30;;;7.10;;
3559;SDS011;1794;48.804;9.156;2022-07-29T12:32:32;6.90;;;6.20;;
3559;SDS011;1794;48.804;9.156;2022-07-29T12:35:01;6.70;;;6.10;;
3559;SDS011;1794;48.804;9.156;2022-07-29T12:37:30;5.90;;;5.37;;
3559;SDS011;1794;48.804;9.156;2022-07-29T12:39:58;5.83;;;5.33;;
3559;SDS011;1794;48.804;9.156;2022-07-29T12:42:25;6.20;;;5.63;;
3559;SDS011;1794;48.804;9.156;2022-07-29T12:44:52;8.10;;;5.33;;
3559;SDS011;1794;48.804;9.156;2022-07-29T12:47:19;6.40;;;5.80;;
3559;SDS011;1794;48.804;9.156;2022-07-29T12:49:47;6.87;;;6.23;;
3559;SDS011;1794;48.804;9.156;2022-07-29T12:52:29;6.33;;;5.73;;
3559;SDS011;1794;48.804;9.156;2022-07-29T12:54:58;7.07;;;6.07;;
3559;SDS011;1794;48.804;9.156;2022-07-29T12:57:26;7.77;;;6.97;;
3559;SDS011;1794;48.804;9.156;2022-07-29T13:00:00;7.90;;;7.10;;
3559;SDS011;1794;48.804;9.156;2022-07-29T13:02:29;6.10;;;5.50;;
3559;SDS011;1794;48.804;9.156;2022-07-29T13:04:56;6.07;;;5.50;;
3559;SDS011;1794;48.804;9.156;2022-07-29T13:07:24;6.30;;;5.80;;
3559;SDS011;1794;48.804;9.156;2022-07-29T13:09:53;6.57;;;5.97;;
3559;SDS011;1794;48.804;9.156;2022-07-29T13:12:20;7.93;;;6.03;;
3559;SDS011;1794;48.804;9.156;2022-07-29T13:14:48;6.83;;;5.97;;
3559;SDS011;1794;48.804;9.156;2022-07-29T13:17:16;6.00;;;5.50;;
3559;SDS011;1794;48.804;9.156;2022-07-29T13:19:44;7.93;;;5.70;;
3559;SDS011;1794;48.804;9.156;2022-07-29T13:22:12;6.00;;;5.50;;
3559;SDS011;1794;48.804;9.156;2022-07-29T13:24:50;5.93;;;4.97;;
3559;SDS011;1794;48.804;9.156;2022-07-29T13:27:20;6.23;;;5.73;;
3559;SDS011;1794;48.804;9.156;2022-07-29T13:29:48;6.80;;;5.77;;
3559;SDS011;1794;48.804;9.156;2022-07-29T13:32:16;7.03;;;5.57;;
3559;SDS011;1794;48.804;9.156;2022-07-29T13:34:43;7.93;;;6.97;;
3559;SDS011;1794;48.804;9.156;2022-07-29T13:37:10;8.40;;;6.53;;
3559;SDS011;1794;48.804;9.156;2022-07-29T13:39:36;7.17;;;6.40;;
3559;SDS011;1794;48.804;9.156;2022-07-29T13:42:05;7.20;;;6.60;;
3559;SDS011;1794;48.804;9.156;2022-07-29T13:44:33;7.63;;;5.90;;
3559;SDS011;1794;48.804;9.156;2022-07-29T13:47:00;7.63;;;6.93;;
3559;SDS011;1794;48.804;9.156;2022-07-29T13:49:27;7.43;;;6.73;;
3559;SDS011;1794;48.804;9.156;2022-07-29T13:51:54;8.30;;;7.00;;
3559;SDS011;1794;48.804;9.156;2022-07-29T13:54:21;7.37;;;6.50;;
3559;SDS011;1794;48.804;9.156;2022-07-29T13:56:47;8.00;;;7.07;;
3559;SDS011;1794;48.804;9.156;2022-07-29T13:59:17;8.13;;;7.20;;
3559;SDS011;1794;48.804;9.156;2022-07-29T14:01:43;9.93;;;6.73;;
3559;SDS011;1794;48.804;9.156;2022-07-29T14:04:10;7.33;;;6.73;;
3559;SDS011;1794;48.804;9.156;2022-07-29T14:06:37;6.97;;;6.30;;
3559;SDS011;1794;48.804;9.156;2022-07-29T14:09:04;7.53;;;6.83;;
3559;SDS011;1794;48.804;9.156;2022-07-29T14:11:33;8.30;;;6.87;;
3559;SDS011;1794;48.804;9.156;2022-07-29T14:14:00;7.80;;;6.90;;
3559;SDS011;1794;48.804;9.156;2022-07-29T14:16:28;6.80;;;6.20;;
3559;SDS011;1794;48.804;9.156;2022-07-29T14:18:55;7.90;;;6.70;;
3559;SDS011;1794;48.804;9.156;2022-07-29T14:21:21;7.40;;;6.70;;
3559;SDS011;1794;48.804;9.156;2022-07-29T14:23:48;7.03;;;6.17;;
3559;SDS011;1794;48.804;9.156;2022-07-29T14:26:17;7.30;;;6.73;;
3559;SDS011;1794;48.804;9.156;2022-07-29T14:28:43;7.30;;;6.60;;
3559;SDS011;1794;48.804;9.156;2022-07-29T14:31:10;7.47;;;6.80;;
3559;SDS011;1794;48.804;9.156;2022-07-29T14:33:38;9.03;;;6.80;;
3559;SDS011;1794;48.804;9.156;2022-07-29T14:36:05;7.80;;;7.00;;
3559;SDS011;1794;48.804;9.156;2022-07-29T14:38:32;6.80;;;6.10;;
3559;SDS011;1794;48.804;9.156;2022-07-29T14:40:59;6.60;;;6.10;;
3559;SDS011;1794;48.804;9.156;2022-07-29T14:43:26;7.53;;;6.83;;
3559;SDS011;1794;48.804;9.156;2022-07-29T14:45:53;11.87;;;7.87;;
3559;SDS011;1794;48.804;9.156;2022-07-29T14:48:20;7.47;;;6.30;;
3559;SDS011;1794;48.804;9.156;2022-07-29T14:50:48;6.97;;;6.37;;
3559;SDS011;1794;48.804;9.156;2022-07-29T14:53:14;8.57;;;7.00;;
3559;SDS011;1794;48.804;9.156;2022-07-29T14:55:41;7.60;;;6.90;;
3559;SDS011;1794;48.804;9.156;2022-07-29T14:58:08;7.97;;;6.57;;
3559;SDS011;1794;48.804;9.156;2022-07-29T15:00:35;7.97;;;6.33;;
3559;SDS011;1794;48.804;9.156;2022-07-29T15:03:02;7.27;;;5.93;;
3559;SDS011;1794;48.804;9.156;2022-07-29T15:05:29;7.80;;;5.90;;
3559;SDS011;1794;48.804;9.156;2022-07-29T15:07:58;6.80;;;6.27;;
3559;SDS011;1794;48.804;9.156;2022-07-29T15:10:25;7.00;;;6.30;;
3559;SDS011;1794;48.804;9.156;2022-07-29T15:12:52;6.50;;;6.00;;
3559;SDS011;1794;48.804;9.156;2022-07-29T15:15:18;7.07;;;6.10;;
3559;SDS011;1794;48.804;9.156;2022-07-29T15:17:45;7.10;;;6.47;;
3559;SDS011;1794;48.804;9.156;2022-07-29T15:20:13;10.67;;;7.07;;
3559;SDS011;1794;48.804;9.156;2022-07-29T15:22:40;6.60;;;6.10;;
3559;SDS011;1794;48.804;9.156;2022-07-29T15:25:09;7.53;;;6.43;;
3559;SDS011;1794;48.804;9.156;2022-07-29T15:27:36;7.23;;;6.63;;
3559;SDS011;1794;48.804;9.156;2022-07-29T15:30:03;7.10;;;6.40;;
3559;SDS011;1794;48.804;9.156;2022-07-29T15:32:30;6.73;;;6.03;;
3559;SDS011;1794;48.804;9.156;2022-07-29T15:34:57;7.00;;;6.30;;
3559;SDS011;1794;48.804;9.156;2022-07-29T15:37:24;6.77;;;6.27;;
3559;SDS011;1794;48.804;9.156;2022-07-29T15:39:53;6.17;;;5.67;;